sensor_id;sensor_type;location;lat;lon;timestamp;P1;durP1;ratioP1;P2;durP2;ratioP2
6342;SDS011;3204;42.698;23.298;2022-12-10T00:00:17;25.57;;;13.63;;
6342;SDS011;3204;42.698;23.298;2022-12-10T00:02:43;28.80;;;12.60;;
6342;SDS011;3204;42.698;23.298;2022-12-10T00:05:08;17.60;;;10.53;;
6342;SDS011;3204;42.698;23.298;2022-12-10T00:07:33;25.53;;;10.53;;
6342;SDS011;3204;42.698;23.298;2022-12-10T00:09:59;22.57;;;10.40;;
6342;SDS011;3204;42.698;23.298;2022-12-10T00:12:24;21.73;;;12.20;;
6342;SDS011;3204;42.698;23.298;2022-12-10T00:14:50;27.03;;;12.23;;
6342;SDS011;3204;42.698;23.298;2022-12-10T00:17:15;24.87;;;13.17;;
6342;SDS011;3204;42.698;23.298;2022-12-10T00:19:40;19.40;;;11.80;;
6342;SDS011;3204;42.698;23.298;2022-12-10T00:22:06;23.17;;;12.73;;
6342;SDS011;3204;42.698;23.298;2022-12-10T00:24:31;25.10;;;11.33;;
6342;SDS011;3204;42.698;23.298;2022-12-10T00:26:57;20.43;;;11.13;;
6342;SDS011;3204;42.698;23.298;2022-12-10T00:29:22;19.27;;;11.20;;
6342;SDS011;3204;42.698;23.298;2022-12-10T00:31:48;14.53;;;10.17;;
6342;SDS011;3204;42.698;23.298;2022-12-10T00:34:13;23.93;;;14.10;;
6342;SDS011;3204;42.698;23.298;2022-12-10T00:36:43;31.63;;;13.00;;
6342;SDS011;3204;42.698;23.298;2022-12-10T00:39:14;19.50;;;10.83;;
6342;SDS011;3204;42.698;23.298;2022-12-10T00:41:41;19.77;;;11.17;;
6342;SDS011;3204;42.698;23.298;2022-12-10T00:44:07;23.20;;;10.67;;
6342;SDS011;3204;42.698;23.298;2022-12-10T00:46:33;21.83;;;11.30;;
6342;SDS011;3204;42.698;23.298;2022-12-10T00:48:59;14.80;;;9.43;;
6342;SDS011;3204;42.698;23.298;2022-12-10T00:51:25;18.37;;;9.60;;
6342;SDS011;3204;42.698;23.298;2022-12-10T00:53:52;14.07;;;8.67;;
6342;SDS011;3204;42.698;23.298;2022-12-10T00:56:21;13.50;;;8.70;;
6342;SDS011;3204;42.698;23.298;2022-12-10T00:58:49;16.03;;;9.53;;
6342;SDS011;3204;42.698;23.298;2022-12-10T01:01:19;17.07;;;8.97;;
6342;SDS011;3204;42.698;23.298;2022-12-10T01:03:50;15.50;;;8.87;;
6342;SDS011;3204;42.698;23.298;2022-12-10T01:06:21;13.80;;;8.83;;
6342;SDS011;3204;42.698;23.298;2022-12-10T01:08:49;16.03;;;8.13;;
6342;SDS011;3204;42.698;23.298;2022-12-10T01:11:16;16.53;;;8.63;;
6342;SDS011;3204;42.698;23.298;2022-12-10T01:13:43;20.33;;;7.87;;
6342;SDS011;3204;42.698;23.298;2022-12-10T01:16:10;13.20;;;8.53;;
6342;SDS011;3204;42.698;23.298;2022-12-10T01:18:36;15.10;;;8.23;;
6342;SDS011;3204;42.698;23.298;2022-12-10T01:21:13;10.90;;;8.30;;
6342;SDS011;3204;42.698;23.298;2022-12-10T01:23:41;14.00;;;8.03;;
6342;SDS011;3204;42.698;23.298;2022-12-10T01:26:09;12.20;;;8.00;;
6342;SDS011;3204;42.698;23.298;2022-12-10T01:28:38;11.40;;;8.47;;
6342;SDS011;3204;42.698;23.298;2022-12-10T01:31:05;18.25;;;8.52;;
6342;SDS011;3204;42.698;23.298;2022-12-10T01:33:42;14.20;;;8.47;;
6342;SDS011;3204;42.698;23.298;2022-12-10T01:36:09;13.87;;;8.67;;
6342;SDS011;3204;42.698;23.298;2022-12-10T01:38:36;13.47;;;8.17;;
6342;SDS011;3204;42.698;23.298;2022-12-10T01:41:02;16.73;;;7.13;;
6342;SDS011;3204;42.698;23.298;2022-12-10T01:43:33;12.60;;;8.17;;
6342;SDS011;3204;42.698;23.298;2022-12-10T01:46:21;12.37;;;7.93;;
6342;SDS011;3204;42.698;23.298;2022-12-10T01:48:48;13.33;;;7.87;;
6342;SDS011;3204;42.698;23.298;2022-12-10T01:51:15;16.43;;;8.03;;
6342;SDS011;3204;42.698;23.298;2022-12-10T01:53:41;12.60;;;6.80;;
6342;SDS011;3204;42.698;23.298;2022-12-10T01:56:09;12.37;;;8.13;;
6342;SDS011;3204;42.698;23.298;2022-12-10T01:58:36;11.30;;;7.77;;
6342;SDS011;3204;42.698;23.298;2022-12-10T02:01:07;16.93;;;8.13;;
6342;SDS011;3204;42.698;23.298;2022-12-10T02:04:10;15.93;;;7.90;;
6342;SDS011;3204;42.698;23.298;2022-12-10T02:06:53;12.90;;;7.80;;
6342;SDS011;3204;42.698;23.298;2022-12-10T02:17:19;16.03;;;8.83;;
6342;SDS011;3204;42.698;23.298;2022-12-10T02:20:04;18.17;;;10.43;;
6342;SDS011;3204;42.698;23.298;2022-12-10T02:22:39;13.20;;;9.17;;
6342;SDS011;3204;42.698;23.298;2022-12-10T02:25:16;15.33;;;9.27;;
6342;SDS011;3204;42.698;23.298;2022-12-10T02:27:47;13.83;;;9.30;;
6342;SDS011;3204;42.698;23.298;2022-12-10T02:30:26;13.50;;;8.87;;
6342;SDS011;3204;42.698;23.298;2022-12-10T02:32:54;17.23;;;9.40;;
6342;SDS011;3204;42.698;23.298;2022-12-10T02:35:24;15.40;;;9.27;;
6342;SDS011;3204;42.698;23.298;2022-12-10T02:37:54;15.20;;;9.50;;
6342;SDS011;3204;42.698;23.298;2022-12-10T02:40:24;10.50;;;8.60;;
6342;SDS011;3204;42.698;23.298;2022-12-10T02:42:55;15.60;;;9.18;;
6342;SDS011;3204;42.698;23.298;2022-12-10T02:45:22;18.07;;;9.50;;
6342;SDS011;3204;42.698;23.298;2022-12-10T02:47:50;13.93;;;9.38;;
6342;SDS011;3204;42.698;23.298;2022-12-10T02:50:18;13.50;;;9.20;;
6342;SDS011;3204;42.698;23.298;2022-12-10T02:52:46;16.90;;;9.73;;
6342;SDS011;3204;42.698;23.298;2022-12-10T02:55:12;16.52;;;9.88;;
6342;SDS011;3204;42.698;23.298;2022-12-10T03:00:23;20.97;;;11.83;;
6342;SDS011;3204;42.698;23.298;2022-12-10T03:05:45;17.43;;;12.03;;
6342;SDS011;3204;42.698;23.298;2022-12-10T03:08:18;12.87;;;10.40;;
6342;SDS011;3204;42.698;23.298;2022-12-10T03:10:59;14.00;;;10.30;;
6342;SDS011;3204;42.698;23.298;2022-12-10T03:13:32;19.30;;;11.33;;
6342;SDS011;3204;42.698;23.298;2022-12-10T03:16:03;15.93;;;11.37;;
6342;SDS011;3204;42.698;23.298;2022-12-10T03:18:30;20.77;;;11.40;;
6342;SDS011;3204;42.698;23.298;2022-12-10T03:21:01;18.50;;;12.52;;
6342;SDS011;3204;42.698;23.298;2022-12-10T03:23:30;13.10;;;9.93;;
6342;SDS011;3204;42.698;23.298;2022-12-10T03:25:58;17.25;;;10.60;;
6342;SDS011;3204;42.698;23.298;2022-12-10T03:28:25;17.35;;;11.25;;
6342;SDS011;3204;42.698;23.298;2022-12-10T03:30:51;13.47;;;10.23;;
6342;SDS011;3204;42.698;23.298;2022-12-10T03:33:18;17.07;;;9.77;;
6342;SDS011;3204;42.698;23.298;2022-12-10T03:35:44;18.13;;;12.63;;
6342;SDS011;3204;42.698;23.298;2022-12-10T03:38:11;19.17;;;12.17;;
6342;SDS011;3204;42.698;23.298;2022-12-10T03:40:37;13.52;;;11.05;;
6342;SDS011;3204;42.698;23.298;2022-12-10T03:43:03;17.90;;;10.65;;
6342;SDS011;3204;42.698;23.298;2022-12-10T03:45:28;19.83;;;10.23;;
6342;SDS011;3204;42.698;23.298;2022-12-10T03:47:54;15.03;;;9.90;;
6342;SDS011;3204;42.698;23.298;2022-12-10T03:50:19;17.47;;;9.90;;
6342;SDS011;3204;42.698;23.298;2022-12-10T03:52:45;15.83;;;10.27;;
6342;SDS011;3204;42.698;23.298;2022-12-10T03:55:10;15.87;;;10.20;;
6342;SDS011;3204;42.698;23.298;2022-12-10T03:57:36;11.35;;;8.82;;
6342;SDS011;3204;42.698;23.298;2022-12-10T04:00:05;13.83;;;8.23;;
6342;SDS011;3204;42.698;23.298;2022-12-10T04:02:31;12.53;;;9.00;;
6342;SDS011;3204;42.698;23.298;2022-12-10T04:04:56;9.90;;;8.90;;
6342;SDS011;3204;42.698;23.298;2022-12-10T04:07:21;11.33;;;8.87;;
6342;SDS011;3204;42.698;23.298;2022-12-10T04:09:47;14.20;;;9.47;;
6342;SDS011;3204;42.698;23.298;2022-12-10T04:12:13;18.00;;;9.67;;
6342;SDS011;3204;42.698;23.298;2022-12-10T04:14:38;15.97;;;9.33;;
6342;SDS011;3204;42.698;23.298;2022-12-10T04:17:23;15.73;;;9.17;;
6342;SDS011;3204;42.698;23.298;2022-12-10T04:19:48;9.70;;;8.73;;
6342;SDS011;3204;42.698;23.298;2022-12-10T04:22:14;13.67;;;8.13;;
6342;SDS011;3204;42.698;23.298;2022-12-10T04:24:57;11.70;;;8.50;;
6342;SDS011;3204;42.698;23.298;2022-12-10T04:27:41;15.43;;;8.17;;
6342;SDS011;3204;42.698;23.298;2022-12-10T04:30:08;11.53;;;7.63;;
6342;SDS011;3204;42.698;23.298;2022-12-10T04:32:35;10.80;;;7.77;;
6342;SDS011;3204;42.698;23.298;2022-12-10T04:35:00;12.10;;;7.50;;
6342;SDS011;3204;42.698;23.298;2022-12-10T04:37:26;11.63;;;7.30;;
6342;SDS011;3204;42.698;23.298;2022-12-10T04:39:53;13.83;;;7.97;;
6342;SDS011;3204;42.698;23.298;2022-12-10T04:42:19;11.77;;;7.90;;
6342;SDS011;3204;42.698;23.298;2022-12-10T04:44:45;18.43;;;8.87;;
6342;SDS011;3204;42.698;23.298;2022-12-10T04:47:10;13.37;;;8.70;;
6342;SDS011;3204;42.698;23.298;2022-12-10T04:49:36;17.03;;;8.93;;
6342;SDS011;3204;42.698;23.298;2022-12-10T04:52:03;10.07;;;8.10;;
6342;SDS011;3204;42.698;23.298;2022-12-10T04:54:29;13.83;;;8.50;;
6342;SDS011;3204;42.698;23.298;2022-12-10T04:56:54;13.93;;;9.00;;
6342;SDS011;3204;42.698;23.298;2022-12-10T04:59:20;25.40;;;13.37;;
6342;SDS011;3204;42.698;23.298;2022-12-10T05:01:46;20.57;;;12.17;;
6342;SDS011;3204;42.698;23.298;2022-12-10T05:04:12;9.85;;;8.90;;
6342;SDS011;3204;42.698;23.298;2022-12-10T05:06:39;16.98;;;9.25;;
6342;SDS011;3204;42.698;23.298;2022-12-10T05:09:04;12.73;;;8.87;;
6342;SDS011;3204;42.698;23.298;2022-12-10T05:11:31;14.05;;;9.98;;
6342;SDS011;3204;42.698;23.298;2022-12-10T05:13:57;17.40;;;11.23;;
6342;SDS011;3204;42.698;23.298;2022-12-10T05:16:24;13.85;;;9.60;;
6342;SDS011;3204;42.698;23.298;2022-12-10T05:18:52;11.73;;;8.47;;
6342;SDS011;3204;42.698;23.298;2022-12-10T05:21:19;11.07;;;9.40;;
6342;SDS011;3204;42.698;23.298;2022-12-10T05:23:46;12.82;;;9.60;;
6342;SDS011;3204;42.698;23.298;2022-12-10T05:26:14;10.80;;;8.98;;
6342;SDS011;3204;42.698;23.298;2022-12-10T05:28:49;12.70;;;9.15;;
6342;SDS011;3204;42.698;23.298;2022-12-10T05:31:18;14.47;;;10.07;;
6342;SDS011;3204;42.698;23.298;2022-12-10T05:33:48;15.63;;;10.10;;
6342;SDS011;3204;42.698;23.298;2022-12-10T05:36:15;13.70;;;9.95;;
6342;SDS011;3204;42.698;23.298;2022-12-10T05:38:42;11.38;;;9.00;;
6342;SDS011;3204;42.698;23.298;2022-12-10T05:41:09;25.90;;;14.63;;
6342;SDS011;3204;42.698;23.298;2022-12-10T05:43:37;22.05;;;13.55;;
6342;SDS011;3204;42.698;23.298;2022-12-10T05:46:04;18.30;;;12.37;;
6342;SDS011;3204;42.698;23.298;2022-12-10T05:48:32;16.52;;;12.52;;
6342;SDS011;3204;42.698;23.298;2022-12-10T05:51:02;17.25;;;11.98;;
6342;SDS011;3204;42.698;23.298;2022-12-10T05:53:28;15.98;;;11.60;;
6342;SDS011;3204;42.698;23.298;2022-12-10T05:56:07;23.55;;;13.20;;
6342;SDS011;3204;42.698;23.298;2022-12-10T05:58:34;16.17;;;12.65;;
6342;SDS011;3204;42.698;23.298;2022-12-10T06:01:05;16.15;;;12.10;;
6342;SDS011;3204;42.698;23.298;2022-12-10T06:03:32;16.77;;;12.77;;
6342;SDS011;3204;42.698;23.298;2022-12-10T06:05:58;18.53;;;12.93;;
6342;SDS011;3204;42.698;23.298;2022-12-10T06:08:23;18.73;;;14.07;;
6342;SDS011;3204;42.698;23.298;2022-12-10T06:10:48;14.90;;;11.50;;
6342;SDS011;3204;42.698;23.298;2022-12-10T06:13:14;16.20;;;11.73;;
6342;SDS011;3204;42.698;23.298;2022-12-10T06:15:40;11.65;;;8.77;;
6342;SDS011;3204;42.698;23.298;2022-12-10T06:18:06;16.30;;;10.95;;
6342;SDS011;3204;42.698;23.298;2022-12-10T06:20:32;22.42;;;13.82;;
6342;SDS011;3204;42.698;23.298;2022-12-10T06:22:57;12.40;;;10.07;;
6342;SDS011;3204;42.698;23.298;2022-12-10T06:25:23;18.63;;;11.15;;
6342;SDS011;3204;42.698;23.298;2022-12-10T06:27:49;13.35;;;10.02;;
6342;SDS011;3204;42.698;23.298;2022-12-10T06:30:14;17.20;;;10.85;;
6342;SDS011;3204;42.698;23.298;2022-12-10T06:32:40;17.73;;;12.52;;
6342;SDS011;3204;42.698;23.298;2022-12-10T06:35:08;19.98;;;11.82;;
6342;SDS011;3204;42.698;23.298;2022-12-10T06:37:35;19.35;;;11.07;;
6342;SDS011;3204;42.698;23.298;2022-12-10T06:40:00;16.95;;;10.25;;
6342;SDS011;3204;42.698;23.298;2022-12-10T06:42:25;15.45;;;11.65;;
6342;SDS011;3204;42.698;23.298;2022-12-10T06:44:51;15.38;;;11.80;;
6342;SDS011;3204;42.698;23.298;2022-12-10T06:47:16;15.35;;;11.82;;
6342;SDS011;3204;42.698;23.298;2022-12-10T06:49:42;19.30;;;14.38;;
6342;SDS011;3204;42.698;23.298;2022-12-10T06:52:07;17.10;;;12.30;;
6342;SDS011;3204;42.698;23.298;2022-12-10T06:54:33;21.50;;;11.55;;
6342;SDS011;3204;42.698;23.298;2022-12-10T06:56:58;19.45;;;13.80;;
6342;SDS011;3204;42.698;23.298;2022-12-10T06:59:24;21.88;;;14.52;;
6342;SDS011;3204;42.698;23.298;2022-12-10T07:01:49;25.88;;;13.27;;
6342;SDS011;3204;42.698;23.298;2022-12-10T07:04:15;13.50;;;11.05;;
6342;SDS011;3204;42.698;23.298;2022-12-10T07:06:41;21.33;;;11.00;;
6342;SDS011;3204;42.698;23.298;2022-12-10T07:09:06;13.27;;;10.43;;
6342;SDS011;3204;42.698;23.298;2022-12-10T07:11:32;18.20;;;10.45;;
6342;SDS011;3204;42.698;23.298;2022-12-10T07:13:58;18.15;;;11.20;;
6342;SDS011;3204;42.698;23.298;2022-12-10T07:16:25;19.90;;;11.10;;
6342;SDS011;3204;42.698;23.298;2022-12-10T07:18:52;18.25;;;11.38;;
6342;SDS011;3204;42.698;23.298;2022-12-10T07:23:51;33.33;;;15.85;;
6342;SDS011;3204;42.698;23.298;2022-12-10T07:26:23;15.82;;;10.82;;
6342;SDS011;3204;42.698;23.298;2022-12-10T07:28:49;14.40;;;11.35;;
6342;SDS011;3204;42.698;23.298;2022-12-10T07:31:15;15.00;;;11.05;;
6342;SDS011;3204;42.698;23.298;2022-12-10T07:33:41;13.75;;;10.75;;
6342;SDS011;3204;42.698;23.298;2022-12-10T07:36:08;16.40;;;11.07;;
6342;SDS011;3204;42.698;23.298;2022-12-10T07:38:34;16.25;;;10.65;;
6342;SDS011;3204;42.698;23.298;2022-12-10T07:41:07;13.90;;;9.93;;
6342;SDS011;3204;42.698;23.298;2022-12-10T07:43:35;15.77;;;10.13;;
6342;SDS011;3204;42.698;23.298;2022-12-10T07:46:14;22.25;;;10.70;;
6342;SDS011;3204;42.698;23.298;2022-12-10T07:48:41;15.88;;;10.02;;
6342;SDS011;3204;42.698;23.298;2022-12-10T07:51:08;19.35;;;11.52;;
6342;SDS011;3204;42.698;23.298;2022-12-10T07:53:34;12.35;;;9.88;;
6342;SDS011;3204;42.698;23.298;2022-12-10T07:55:59;14.32;;;10.95;;
6342;SDS011;3204;42.698;23.298;2022-12-10T07:58:26;12.25;;;10.70;;
6342;SDS011;3204;42.698;23.298;2022-12-10T08:00:52;16.23;;;10.18;;
6342;SDS011;3204;42.698;23.298;2022-12-10T08:03:17;13.57;;;9.90;;
6342;SDS011;3204;42.698;23.298;2022-12-10T08:05:43;13.20;;;10.23;;
6342;SDS011;3204;42.698;23.298;2022-12-10T08:08:08;17.50;;;10.38;;
6342;SDS011;3204;42.698;23.298;2022-12-10T08:10:34;26.02;;;13.25;;
6342;SDS011;3204;42.698;23.298;2022-12-10T08:13:00;42.88;;;18.25;;
6342;SDS011;3204;42.698;23.298;2022-12-10T08:15:25;21.73;;;12.95;;
6342;SDS011;3204;42.698;23.298;2022-12-10T08:17:53;14.60;;;11.20;;
6342;SDS011;3204;42.698;23.298;2022-12-10T08:20:18;17.75;;;11.35;;
6342;SDS011;3204;42.698;23.298;2022-12-10T08:22:44;17.48;;;13.05;;
6342;SDS011;3204;42.698;23.298;2022-12-10T08:25:09;19.73;;;13.20;;
6342;SDS011;3204;42.698;23.298;2022-12-10T08:27:35;19.75;;;12.90;;
6342;SDS011;3204;42.698;23.298;2022-12-10T08:30:00;23.77;;;16.33;;
6342;SDS011;3204;42.698;23.298;2022-12-10T08:32:26;24.30;;;15.02;;
6342;SDS011;3204;42.698;23.298;2022-12-10T08:34:51;21.63;;;13.90;;
6342;SDS011;3204;42.698;23.298;2022-12-10T08:37:16;23.10;;;15.77;;
6342;SDS011;3204;42.698;23.298;2022-12-10T08:39:42;23.90;;;15.80;;
6342;SDS011;3204;42.698;23.298;2022-12-10T08:42:07;24.60;;;15.60;;
6342;SDS011;3204;42.698;23.298;2022-12-10T08:44:33;24.52;;;15.98;;
6342;SDS011;3204;42.698;23.298;2022-12-10T08:46:58;27.20;;;16.85;;
6342;SDS011;3204;42.698;23.298;2022-12-10T08:49:24;24.15;;;13.85;;
6342;SDS011;3204;42.698;23.298;2022-12-10T08:51:49;18.02;;;13.23;;
6342;SDS011;3204;42.698;23.298;2022-12-10T08:54:15;25.17;;;16.13;;
6342;SDS011;3204;42.698;23.298;2022-12-10T08:56:40;23.60;;;15.43;;
6342;SDS011;3204;42.698;23.298;2022-12-10T08:59:06;26.48;;;17.27;;
6342;SDS011;3204;42.698;23.298;2022-12-10T09:01:32;23.05;;;13.95;;
6342;SDS011;3204;42.698;23.298;2022-12-10T09:03:57;19.80;;;12.70;;
6342;SDS011;3204;42.698;23.298;2022-12-10T09:06:24;15.35;;;11.35;;
6342;SDS011;3204;42.698;23.298;2022-12-10T09:08:50;18.95;;;12.75;;
6342;SDS011;3204;42.698;23.298;2022-12-10T09:11:25;20.08;;;13.00;;
6342;SDS011;3204;42.698;23.298;2022-12-10T09:13:56;16.65;;;11.10;;
6342;SDS011;3204;42.698;23.298;2022-12-10T09:16:27;14.18;;;11.77;;
6342;SDS011;3204;42.698;23.298;2022-12-10T09:18:57;14.00;;;11.60;;
6342;SDS011;3204;42.698;23.298;2022-12-10T09:21:24;16.33;;;12.23;;
6342;SDS011;3204;42.698;23.298;2022-12-10T09:23:50;15.05;;;11.88;;
6342;SDS011;3204;42.698;23.298;2022-12-10T09:26:16;17.88;;;12.40;;
6342;SDS011;3204;42.698;23.298;2022-12-10T09:28:43;15.90;;;12.43;;
6342;SDS011;3204;42.698;23.298;2022-12-10T09:31:10;15.30;;;11.88;;
6342;SDS011;3204;42.698;23.298;2022-12-10T09:33:36;14.77;;;11.75;;
6342;SDS011;3204;42.698;23.298;2022-12-10T09:36:06;16.15;;;11.00;;
6342;SDS011;3204;42.698;23.298;2022-12-10T09:38:36;12.88;;;9.98;;
6342;SDS011;3204;42.698;23.298;2022-12-10T09:41:04;15.93;;;11.20;;
6342;SDS011;3204;42.698;23.298;2022-12-10T09:43:45;12.48;;;10.82;;
6342;SDS011;3204;42.698;23.298;2022-12-10T09:49:02;16.33;;;11.20;;
6342;SDS011;3204;42.698;23.298;2022-12-10T09:51:35;14.20;;;10.93;;
6342;SDS011;3204;42.698;23.298;2022-12-10T09:54:04;16.10;;;9.43;;
6342;SDS011;3204;42.698;23.298;2022-12-10T09:56:43;10.48;;;9.57;;
6342;SDS011;3204;42.698;23.298;2022-12-10T09:59:20;13.32;;;10.35;;
6342;SDS011;3204;42.698;23.298;2022-12-10T10:02:40;13.60;;;9.32;;
6342;SDS011;3204;42.698;23.298;2022-12-10T10:04:50;11.95;;;9.90;;
6342;SDS011;3204;42.698;23.298;2022-12-10T10:07:19;10.98;;;9.77;;
6342;SDS011;3204;42.698;23.298;2022-12-10T10:09:48;14.35;;;9.55;;
6342;SDS011;3204;42.698;23.298;2022-12-10T10:12:15;11.05;;;9.23;;
6342;SDS011;3204;42.698;23.298;2022-12-10T10:14:44;12.90;;;9.73;;
6342;SDS011;3204;42.698;23.298;2022-12-10T10:17:20;13.77;;;11.30;;
6342;SDS011;3204;42.698;23.298;2022-12-10T10:19:51;12.23;;;9.95;;
6342;SDS011;3204;42.698;23.298;2022-12-10T10:22:16;14.63;;;10.93;;
6342;SDS011;3204;42.698;23.298;2022-12-10T10:24:43;11.55;;;10.43;;
6342;SDS011;3204;42.698;23.298;2022-12-10T10:29:54;12.02;;;10.63;;
6342;SDS011;3204;42.698;23.298;2022-12-10T10:32:27;12.75;;;11.30;;
6342;SDS011;3204;42.698;23.298;2022-12-10T10:35:20;13.13;;;10.00;;
6342;SDS011;3204;42.698;23.298;2022-12-10T10:37:59;12.20;;;9.77;;
6342;SDS011;3204;42.698;23.298;2022-12-10T10:43:01;12.75;;;9.90;;
6342;SDS011;3204;42.698;23.298;2022-12-10T10:50:44;10.05;;;8.90;;
6342;SDS011;3204;42.698;23.298;2022-12-10T10:53:22;10.15;;;9.25;;
6342;SDS011;3204;42.698;23.298;2022-12-10T10:55:59;10.82;;;9.60;;
6342;SDS011;3204;42.698;23.298;2022-12-10T10:58:30;13.23;;;9.60;;
6342;SDS011;3204;42.698;23.298;2022-12-10T11:03:33;11.73;;;7.93;;
6342;SDS011;3204;42.698;23.298;2022-12-10T11:06:00;14.60;;;8.75;;
6342;SDS011;3204;42.698;23.298;2022-12-10T11:08:30;8.68;;;7.97;;
6342;SDS011;3204;42.698;23.298;2022-12-10T11:10:58;11.73;;;7.15;;
6342;SDS011;3204;42.698;23.298;2022-12-10T11:13:32;8.10;;;7.30;;
6342;SDS011;3204;42.698;23.298;2022-12-10T11:16:11;9.95;;;7.60;;
6342;SDS011;3204;42.698;23.298;2022-12-10T11:18:38;9.75;;;7.57;;
6342;SDS011;3204;42.698;23.298;2022-12-10T11:23:39;8.07;;;7.32;;
6342;SDS011;3204;42.698;23.298;2022-12-10T11:31:42;12.50;;;7.80;;
6342;SDS011;3204;42.698;23.298;2022-12-10T11:39:27;12.88;;;8.05;;
6342;SDS011;3204;42.698;23.298;2022-12-10T11:49:58;11.27;;;8.07;;
6342;SDS011;3204;42.698;23.298;2022-12-10T11:55:29;14.02;;;10.63;;
6342;SDS011;3204;42.698;23.298;2022-12-10T12:00:45;12.52;;;10.15;;
6342;SDS011;3204;42.698;23.298;2022-12-10T12:12:03;10.05;;;8.52;;
6342;SDS011;3204;42.698;23.298;2022-12-10T12:14:32;8.68;;;7.88;;
6342;SDS011;3204;42.698;23.298;2022-12-10T12:18:06;9.40;;;8.20;;
6342;SDS011;3204;42.698;23.298;2022-12-10T12:20:23;12.18;;;7.18;;
6342;SDS011;3204;42.698;23.298;2022-12-10T12:25:53;12.25;;;8.75;;
6342;SDS011;3204;42.698;23.298;2022-12-10T12:28:30;16.20;;;8.80;;
6342;SDS011;3204;42.698;23.298;2022-12-10T12:31:05;11.35;;;8.88;;
6342;SDS011;3204;42.698;23.298;2022-12-10T12:33:39;11.65;;;8.70;;
6342;SDS011;3204;42.698;23.298;2022-12-10T12:36:30;10.52;;;9.02;;
6342;SDS011;3204;42.698;23.298;2022-12-10T12:42:02;12.43;;;9.23;;
6342;SDS011;3204;42.698;23.298;2022-12-10T12:44:48;10.02;;;8.68;;
6342;SDS011;3204;42.698;23.298;2022-12-10T12:47:39;11.27;;;9.27;;
6342;SDS011;3204;42.698;23.298;2022-12-10T12:50:23;9.27;;;8.40;;
6342;SDS011;3204;42.698;23.298;2022-12-10T12:52:51;8.98;;;7.72;;
6342;SDS011;3204;42.698;23.298;2022-12-10T13:00:38;10.40;;;7.38;;
6342;SDS011;3204;42.698;23.298;2022-12-10T13:05:48;10.05;;;8.52;;
6342;SDS011;3204;42.698;23.298;2022-12-10T13:11:00;11.63;;;9.25;;
6342;SDS011;3204;42.698;23.298;2022-12-10T13:13:42;17.77;;;13.00;;
6342;SDS011;3204;42.698;23.298;2022-12-10T13:27:02;17.60;;;11.45;;
6342;SDS011;3204;42.698;23.298;2022-12-10T13:35:18;17.67;;;10.45;;
6342;SDS011;3204;42.698;23.298;2022-12-10T13:48:48;16.42;;;12.23;;
6342;SDS011;3204;42.698;23.298;2022-12-10T13:51:26;30.42;;;19.23;;
6342;SDS011;3204;42.698;23.298;2022-12-10T13:57:26;18.58;;;12.35;;
6342;SDS011;3204;42.698;23.298;2022-12-10T13:59:57;15.70;;;11.75;;
6342;SDS011;3204;42.698;23.298;2022-12-10T14:02:52;18.98;;;12.43;;
6342;SDS011;3204;42.698;23.298;2022-12-10T14:07:59;21.73;;;14.65;;
6342;SDS011;3204;42.698;23.298;2022-12-10T14:10:29;28.75;;;16.50;;
6342;SDS011;3204;42.698;23.298;2022-12-10T14:12:58;29.55;;;17.48;;
6342;SDS011;3204;42.698;23.298;2022-12-10T14:15:26;29.13;;;17.05;;
6342;SDS011;3204;42.698;23.298;2022-12-10T14:17:54;32.72;;;20.05;;
6342;SDS011;3204;42.698;23.298;2022-12-10T14:20:47;35.33;;;19.10;;
6342;SDS011;3204;42.698;23.298;2022-12-10T14:23:28;36.42;;;19.35;;
6342;SDS011;3204;42.698;23.298;2022-12-10T14:25:58;48.08;;;26.02;;
6342;SDS011;3204;42.698;23.298;2022-12-10T14:28:24;48.47;;;23.15;;
6342;SDS011;3204;42.698;23.298;2022-12-10T14:30:49;42.13;;;22.65;;
6342;SDS011;3204;42.698;23.298;2022-12-10T14:33:17;36.78;;;20.60;;
6342;SDS011;3204;42.698;23.298;2022-12-10T14:35:47;37.38;;;18.73;;
6342;SDS011;3204;42.698;23.298;2022-12-10T14:38:21;27.13;;;17.63;;
6342;SDS011;3204;42.698;23.298;2022-12-10T14:40:52;27.85;;;15.38;;
6342;SDS011;3204;42.698;23.298;2022-12-10T14:43:22;27.15;;;16.40;;
6342;SDS011;3204;42.698;23.298;2022-12-10T14:45:53;32.55;;;17.23;;
6342;SDS011;3204;42.698;23.298;2022-12-10T14:48:21;28.50;;;14.50;;
6342;SDS011;3204;42.698;23.298;2022-12-10T14:50:47;21.33;;;13.55;;
6342;SDS011;3204;42.698;23.298;2022-12-10T14:53:18;27.73;;;14.40;;
6342;SDS011;3204;42.698;23.298;2022-12-10T14:55:49;32.85;;;14.18;;
6342;SDS011;3204;42.698;23.298;2022-12-10T14:58:36;37.83;;;17.60;;
6342;SDS011;3204;42.698;23.298;2022-12-10T15:01:09;29.45;;;14.70;;
6342;SDS011;3204;42.698;23.298;2022-12-10T15:03:43;25.90;;;12.80;;
6342;SDS011;3204;42.698;23.298;2022-12-10T15:06:12;25.15;;;13.32;;
6342;SDS011;3204;42.698;23.298;2022-12-10T15:08:41;22.60;;;13.00;;
6342;SDS011;3204;42.698;23.298;2022-12-10T15:11:14;24.05;;;13.38;;
6342;SDS011;3204;42.698;23.298;2022-12-10T15:13:43;26.42;;;14.85;;
6342;SDS011;3204;42.698;23.298;2022-12-10T15:16:17;41.72;;;17.42;;
6342;SDS011;3204;42.698;23.298;2022-12-10T15:18:44;32.97;;;17.80;;
6342;SDS011;3204;42.698;23.298;2022-12-10T15:23:46;58.35;;;23.67;;
6342;SDS011;3204;42.698;23.298;2022-12-10T15:28:45;22.95;;;15.60;;
6342;SDS011;3204;42.698;23.298;2022-12-10T15:31:13;31.83;;;16.13;;
6342;SDS011;3204;42.698;23.298;2022-12-10T15:34:01;28.75;;;15.90;;
6342;SDS011;3204;42.698;23.298;2022-12-10T15:37:05;30.33;;;18.38;;
6342;SDS011;3204;42.698;23.298;2022-12-10T15:39:29;29.63;;;17.08;;
6342;SDS011;3204;42.698;23.298;2022-12-10T15:42:05;25.05;;;14.93;;
6342;SDS011;3204;42.698;23.298;2022-12-10T15:49:39;36.80;;;15.10;;
6342;SDS011;3204;42.698;23.298;2022-12-10T15:52:05;26.48;;;15.75;;
6342;SDS011;3204;42.698;23.298;2022-12-10T15:54:32;28.13;;;14.60;;
6342;SDS011;3204;42.698;23.298;2022-12-10T15:56:58;28.83;;;15.50;;
6342;SDS011;3204;42.698;23.298;2022-12-10T15:59:24;28.75;;;15.57;;
6342;SDS011;3204;42.698;23.298;2022-12-10T16:01:49;22.63;;;14.68;;
6342;SDS011;3204;42.698;23.298;2022-12-10T16:04:15;30.20;;;14.85;;
6342;SDS011;3204;42.698;23.298;2022-12-10T16:06:41;22.27;;;15.13;;
6342;SDS011;3204;42.698;23.298;2022-12-10T16:09:08;45.72;;;19.48;;
6342;SDS011;3204;42.698;23.298;2022-12-10T16:11:34;47.10;;;23.70;;
6342;SDS011;3204;42.698;23.298;2022-12-10T16:14:00;36.03;;;20.48;;
6342;SDS011;3204;42.698;23.298;2022-12-10T16:16:27;35.17;;;18.05;;
6342;SDS011;3204;42.698;23.298;2022-12-10T16:18:52;31.58;;;17.27;;
6342;SDS011;3204;42.698;23.298;2022-12-10T16:21:18;37.60;;;19.42;;
6342;SDS011;3204;42.698;23.298;2022-12-10T16:23:44;29.05;;;18.95;;
6342;SDS011;3204;42.698;23.298;2022-12-10T16:26:17;32.78;;;18.42;;
6342;SDS011;3204;42.698;23.298;2022-12-10T16:28:44;40.30;;;23.23;;
6342;SDS011;3204;42.698;23.298;2022-12-10T16:31:11;37.97;;;21.67;;
6342;SDS011;3204;42.698;23.298;2022-12-10T16:33:39;39.83;;;21.98;;
6342;SDS011;3204;42.698;23.298;2022-12-10T16:36:05;40.08;;;22.55;;
6342;SDS011;3204;42.698;23.298;2022-12-10T16:38:31;47.70;;;24.65;;
6342;SDS011;3204;42.698;23.298;2022-12-10T16:40:56;54.15;;;27.00;;
6342;SDS011;3204;42.698;23.298;2022-12-10T16:43:24;56.03;;;27.67;;
6342;SDS011;3204;42.698;23.298;2022-12-10T16:45:52;49.15;;;28.75;;
6342;SDS011;3204;42.698;23.298;2022-12-10T16:48:19;47.60;;;25.80;;
6342;SDS011;3204;42.698;23.298;2022-12-10T16:50:45;45.55;;;24.67;;
6342;SDS011;3204;42.698;23.298;2022-12-10T16:55:55;48.03;;;26.70;;
6342;SDS011;3204;42.698;23.298;2022-12-10T16:58:21;47.85;;;26.15;;
6342;SDS011;3204;42.698;23.298;2022-12-10T17:00:48;46.60;;;25.15;;
6342;SDS011;3204;42.698;23.298;2022-12-10T17:03:17;43.53;;;25.38;;